createdAt,value
2023-02-12T00:01:10.501Z,26.43
2023-02-12T00:03:41.483Z,30.17
2023-02-12T00:06:10.915Z,33.03
2023-02-12T00:08:41.081Z,25.80
2023-02-12T00:11:12.302Z,28.13
2023-02-12T00:13:41.173Z,29.13
2023-02-12T00:16:13.054Z,27.80
2023-02-12T00:18:42.912Z,31.50
2023-02-12T00:21:11.542Z,25.83
2023-02-12T00:23:41.722Z,26.23
2023-02-12T00:26:11.600Z,31.50
2023-02-12T00:28:40.421Z,23.13
2023-02-12T00:31:10.119Z,30.03
2023-02-12T00:33:39.192Z,21.80
2023-02-12T00:36:11.980Z,25.90
2023-02-12T00:38:40.209Z,32.27
2023-02-12T00:41:08.644Z,29.50
2023-02-12T00:43:37.060Z,35.13
2023-02-12T00:46:07.159Z,34.70
2023-02-12T00:48:35.847Z,34.70
2023-02-12T00:51:04.268Z,20.87
2023-02-12T00:53:34.914Z,23.63
2023-02-12T00:56:03.852Z,34.77
2023-02-12T00:58:32.164Z,18.60
2023-02-12T01:01:00.503Z,24.13
2023-02-12T01:03:28.858Z,20.70
2023-02-12T01:05:57.841Z,30.03
2023-02-12T01:08:26.993Z,29.13
2023-02-12T01:11:02.999Z,28.43
2023-02-12T01:13:32.139Z,21.90
2023-02-12T01:16:06.776Z,21.97
2023-02-12T01:18:35.365Z,24.87
2023-02-12T01:21:03.828Z,28.97
2023-02-12T01:23:32.121Z,27.40
2023-02-12T01:26:02.116Z,19.23
2023-02-12T01:28:30.737Z,28.70
2023-02-12T01:30:59.363Z,25.77
2023-02-12T01:33:27.671Z,21.63
2023-02-12T01:35:56.192Z,29.83
2023-02-12T01:38:24.995Z,24.60
2023-02-12T01:40:53.275Z,25.97
2023-02-12T01:43:23.287Z,17.23
2023-02-12T01:45:57.007Z,20.43
2023-02-12T01:48:28.891Z,20.07
2023-02-12T01:50:58.371Z,23.30
2023-02-12T01:53:34.486Z,19.00
2023-02-12T01:56:04.230Z,22.13
2023-02-12T01:58:39.528Z,22.67
2023-02-12T02:01:12.591Z,25.97
2023-02-12T02:03:42.160Z,21.33
2023-02-12T02:06:13.644Z,33.83
2023-02-12T02:08:42.623Z,19.00
2023-02-12T02:11:25.055Z,24.47
2023-02-12T02:14:13.233Z,22.80
2023-02-12T02:16:47.884Z,25.53
2023-02-12T02:19:31.689Z,16.43
2023-02-12T02:22:22.219Z,21.13
2023-02-12T02:25:35.141Z,26.27
2023-02-12T02:28:22.051Z,24.97
2023-02-12T02:30:56.870Z,32.83
2023-02-12T02:33:37.571Z,38.93
2023-02-12T02:36:25.746Z,31.57
2023-02-12T02:38:59.350Z,17.13
2023-02-12T02:41:33.122Z,24.33
2023-02-12T02:44:06.793Z,29.07
2023-02-12T02:46:41.946Z,30.13
2023-02-12T02:49:15.954Z,25.83
2023-02-12T02:51:50.065Z,20.30
2023-02-12T02:54:24.305Z,28.20
2023-02-12T02:56:59.350Z,31.67
2023-02-12T02:59:34.270Z,24.23
2023-02-12T03:02:10.581Z,19.60
2023-02-12T03:04:43.670Z,20.77
2023-02-12T03:07:16.301Z,27.83
2023-02-12T03:09:49.396Z,28.87
2023-02-12T03:12:22.963Z,31.23
2023-02-12T03:14:58.726Z,27.97
2023-02-12T03:17:34.146Z,28.03
2023-02-12T03:20:07.238Z,24.37
2023-02-12T03:22:38.973Z,24.17
2023-02-12T03:25:14.879Z,21.10
2023-02-12T03:27:47.660Z,30.87
2023-02-12T03:30:16.482Z,30.63
2023-02-12T03:32:55.706Z,32.77
2023-02-12T03:35:32.361Z,28.53
2023-02-12T03:38:16.466Z,29.40
2023-02-12T03:40:52.663Z,33.47
2023-02-12T03:43:26.382Z,26.77
2023-02-12T03:46:00.190Z,38.37
2023-02-12T03:48:35.016Z,26.97
2023-02-12T03:51:10.778Z,27.23
2023-02-12T03:53:39.223Z,23.90
2023-02-12T03:56:13.062Z,21.17
2023-02-12T03:58:44.296Z,41.53
2023-02-12T04:01:13.980Z,34.50
2023-02-12T04:03:43.951Z,40.60
2023-02-12T04:06:23.845Z,28.37
2023-02-12T04:08:52.659Z,30.00
2023-02-12T04:11:31.095Z,29.23
2023-02-12T04:14:16.075Z,22.67
2023-02-12T04:16:52.351Z,29.70
2023-02-12T04:19:35.101Z,25.50
2023-02-12T04:22:16.047Z,30.50
2023-02-12T04:24:54.242Z,30.77
2023-02-12T04:27:27.875Z,27.80
2023-02-12T04:30:02.400Z,27.53
2023-02-12T04:32:39.100Z,33.13
2023-02-12T04:35:16.589Z,30.93
2023-02-12T04:37:50.002Z,28.63
2023-02-12T04:40:20.918Z,32.93
2023-02-12T04:42:50.989Z,31.07
2023-02-12T04:45:23.959Z,25.67
2023-02-12T04:47:52.762Z,27.67
2023-02-12T04:50:23.113Z,29.90
2023-02-12T04:52:51.430Z,28.37
2023-02-12T04:55:19.998Z,31.33
2023-02-12T04:57:48.951Z,28.80
2023-02-12T05:00:18.584Z,34.80
2023-02-12T05:02:46.637Z,34.30
2023-02-12T05:05:14.747Z,27.67
2023-02-12T05:07:44.225Z,29.03
2023-02-12T05:10:12.717Z,31.63
2023-02-12T05:12:40.673Z,38.30
2023-02-12T05:15:09.336Z,24.27
2023-02-12T05:17:37.460Z,25.03
2023-02-12T05:20:06.379Z,24.60
2023-02-12T05:22:34.379Z,19.97
2023-02-12T05:25:03.878Z,28.80
2023-02-12T05:27:31.964Z,18.67
2023-02-12T05:30:00.116Z,21.10
2023-02-12T05:32:28.143Z,26.47
2023-02-12T05:34:56.142Z,44.03
2023-02-12T05:37:24.459Z,31.43
2023-02-12T05:39:52.472Z,22.43
2023-02-12T05:42:21.907Z,29.20
2023-02-12T05:44:49.950Z,31.40
2023-02-12T05:47:18.089Z,31.60
2023-02-12T05:49:46.092Z,24.63
2023-02-12T05:52:14.135Z,32.67
2023-02-12T05:54:42.236Z,28.50
2023-02-12T05:57:10.239Z,24.93
2023-02-12T05:59:40.403Z,24.00
2023-02-12T06:02:08.449Z,23.97
2023-02-12T06:04:36.534Z,20.10
2023-02-12T06:07:04.668Z,32.53
2023-02-12T06:09:32.718Z,37.43
2023-02-12T06:12:00.780Z,24.57
2023-02-12T06:14:31.549Z,21.67
2023-02-12T06:17:01.515Z,18.10
2023-02-12T06:19:29.546Z,22.93
2023-02-12T06:21:57.654Z,24.90
2023-02-12T06:24:25.920Z,33.80
2023-02-12T06:26:54.153Z,31.83
2023-02-12T06:29:23.108Z,38.70
2023-02-12T06:31:51.370Z,26.53
2023-02-12T06:34:20.822Z,32.83
2023-02-12T06:36:49.569Z,26.50
2023-02-12T06:39:18.297Z,26.67
2023-02-12T06:41:46.317Z,24.90
2023-02-12T06:44:14.665Z,21.10
2023-02-12T06:46:42.839Z,23.23
2023-02-12T06:49:14.206Z,34.37
2023-02-12T06:51:43.985Z,32.23
2023-02-12T06:54:15.427Z,37.47
2023-02-12T06:56:43.536Z,25.83
2023-02-12T06:59:14.630Z,26.07
2023-02-12T07:01:42.902Z,24.60
2023-02-12T07:04:11.979Z,26.47
2023-02-12T07:06:40.178Z,32.47
2023-02-12T07:09:09.648Z,40.33
2023-02-12T07:11:38.849Z,26.90
2023-02-12T07:14:07.379Z,25.83
2023-02-12T07:16:35.521Z,37.17
2023-02-12T07:19:03.641Z,32.77
2023-02-12T07:21:32.000Z,22.93
2023-02-12T07:24:00.266Z,30.93
2023-02-12T07:26:29.958Z,26.93
2023-02-12T07:28:58.549Z,29.70
2023-02-12T07:31:26.807Z,31.20
2023-02-12T07:33:56.190Z,27.63
2023-02-12T07:36:25.668Z,18.63
2023-02-12T07:38:54.761Z,27.20
2023-02-12T07:41:24.747Z,27.13
2023-02-12T07:43:57.323Z,20.93
2023-02-12T07:46:29.745Z,21.07
2023-02-12T07:48:58.969Z,25.10
2023-02-12T07:51:28.087Z,18.47
2023-02-12T07:53:57.103Z,34.07
2023-02-12T07:56:29.611Z,22.90
2023-02-12T07:59:00.098Z,21.33
2023-02-12T08:01:30.307Z,30.57
2023-02-12T08:04:00.910Z,25.23
2023-02-12T08:06:31.411Z,22.90
2023-02-12T08:09:00.949Z,23.83
2023-02-12T08:11:31.718Z,28.73
2023-02-12T08:14:01.984Z,21.20
2023-02-12T08:16:31.659Z,30.17
2023-02-12T08:19:14.352Z,17.63
2023-02-12T08:21:44.983Z,21.93
2023-02-12T08:24:13.054Z,14.77
2023-02-12T08:26:41.261Z,20.50
2023-02-12T08:29:14.244Z,19.17
2023-02-12T08:31:44.669Z,20.97
2023-02-12T08:34:20.015Z,21.80
2023-02-12T08:36:49.784Z,24.53
2023-02-12T08:39:18.851Z,20.73
2023-02-12T08:41:47.436Z,23.50
2023-02-12T08:44:17.412Z,23.90
2023-02-12T08:46:47.850Z,23.57
2023-02-12T08:49:18.891Z,28.60
2023-02-12T08:51:49.658Z,23.17
2023-02-12T08:54:19.701Z,25.17
2023-02-12T08:56:47.987Z,17.67
2023-02-12T08:59:18.487Z,15.37
2023-02-12T09:01:46.791Z,28.53
2023-02-12T09:04:18.141Z,24.53
2023-02-12T09:06:47.352Z,30.50
2023-02-12T09:09:16.034Z,22.80
2023-02-12T09:11:44.772Z,21.10
2023-02-12T09:14:14.549Z,22.50
2023-02-12T09:16:44.133Z,34.03
2023-02-12T09:19:14.161Z,24.47
2023-02-12T09:21:42.786Z,21.00
2023-02-12T09:24:11.577Z,26.60
2023-02-12T09:26:41.126Z,15.60
2023-02-12T09:29:09.411Z,27.30
2023-02-12T09:31:37.789Z,16.40
2023-02-12T09:34:08.575Z,32.40
2023-02-12T09:36:37.270Z,21.27
2023-02-12T09:39:05.864Z,21.13
2023-02-12T09:41:53.014Z,20.10
2023-02-12T09:44:26.878Z,19.23
2023-02-12T09:46:59.889Z,20.00
2023-02-12T09:49:53.652Z,14.77
2023-02-12T09:52:25.495Z,17.10
2023-02-12T09:54:54.586Z,28.93
2023-02-12T09:57:29.625Z,19.37
2023-02-12T10:00:00.863Z,27.47
2023-02-12T10:02:29.372Z,28.50
2023-02-12T10:05:02.481Z,21.13
2023-02-12T10:07:52.260Z,27.63
2023-02-12T10:10:32.588Z,18.47
2023-02-12T10:13:06.412Z,20.43
2023-02-12T10:15:40.828Z,21.87
2023-02-12T10:18:22.941Z,21.47
2023-02-12T10:21:04.659Z,15.87
2023-02-12T10:23:59.243Z,17.83
2023-02-12T10:26:31.707Z,25.63
2023-02-12T10:29:06.078Z,23.83
2023-02-12T10:31:38.907Z,22.43
2023-02-12T10:34:17.809Z,26.40
2023-02-12T10:36:49.129Z,16.23
2023-02-12T10:39:22.892Z,23.90
2023-02-12T10:41:57.726Z,26.03
2023-02-12T10:44:25.824Z,29.27
2023-02-12T10:46:54.057Z,18.90
2023-02-12T10:49:23.241Z,30.93
2023-02-12T10:52:06.413Z,47.40
2023-02-12T10:54:43.018Z,32.33
2023-02-12T10:57:23.004Z,24.27
2023-02-12T10:59:53.153Z,28.80
2023-02-12T11:02:27.843Z,22.23
2023-02-12T11:04:58.045Z,21.40
2023-02-12T11:07:28.841Z,24.47
2023-02-12T11:09:58.238Z,33.13
2023-02-12T11:12:32.751Z,26.77
2023-02-12T11:15:02.950Z,23.27
2023-02-12T11:17:36.473Z,21.60
2023-02-12T11:20:10.382Z,24.40
2023-02-12T11:22:51.723Z,22.23
2023-02-12T11:25:20.318Z,30.30
2023-02-12T11:28:01.406Z,19.07
2023-02-12T11:30:30.388Z,18.43
2023-02-12T11:33:17.382Z,20.47
2023-02-12T11:35:54.941Z,18.43
2023-02-12T11:38:31.051Z,21.73
2023-02-12T11:41:03.156Z,19.27
2023-02-12T11:43:32.193Z,33.87
2023-02-12T11:46:01.983Z,15.53
2023-02-12T11:48:33.953Z,19.60
2023-02-12T11:51:04.044Z,25.20
2023-02-12T11:53:36.452Z,16.13
2023-02-12T11:56:06.795Z,13.40
2023-02-12T11:58:35.188Z,9.80
2023-02-12T12:01:09.676Z,16.63
2023-02-12T12:03:44.861Z,11.90
2023-02-12T12:06:22.891Z,17.10
2023-02-12T12:08:58.036Z,12.67
2023-02-12T12:11:31.029Z,15.33
2023-02-12T12:14:05.045Z,16.30
2023-02-12T12:16:56.529Z,16.87
2023-02-12T12:19:47.143Z,16.03
2023-02-12T12:22:22.201Z,15.50
2023-02-12T12:24:57.296Z,13.73
2023-02-12T12:27:54.853Z,14.50
2023-02-12T12:30:26.882Z,15.80
2023-02-12T12:32:58.855Z,15.97
2023-02-12T12:35:40.343Z,15.63
2023-02-12T12:38:20.105Z,13.57
2023-02-12T12:41:03.403Z,16.93
2023-02-12T12:43:43.109Z,16.90
2023-02-12T12:46:32.534Z,18.50
2023-02-12T12:49:17.748Z,18.40
2023-02-12T12:52:03.141Z,13.37
2023-02-12T12:54:43.800Z,14.93
2023-02-12T12:57:24.515Z,10.80
2023-02-12T13:00:09.814Z,9.43
2023-02-12T13:03:06.399Z,11.13
2023-02-12T13:05:58.579Z,8.67
2023-02-12T13:08:55.416Z,14.10
2023-02-12T13:11:36.399Z,10.80
2023-02-12T13:14:22.945Z,8.83
2023-02-12T13:16:58.254Z,6.33
2023-02-12T13:19:37.601Z,8.33
2023-02-12T13:22:12.062Z,10.17
2023-02-12T13:24:44.818Z,5.70
2023-02-12T13:27:16.805Z,8.60
2023-02-12T13:29:50.476Z,5.67
2023-02-12T13:32:25.662Z,6.63
2023-02-12T13:34:56.114Z,7.43
2023-02-12T13:37:35.232Z,8.20
2023-02-12T13:40:06.299Z,7.47
2023-02-12T13:42:44.935Z,6.30
2023-02-12T13:45:31.176Z,5.70
2023-02-12T13:48:35.199Z,6.67
2023-02-12T13:51:11.928Z,6.60
2023-02-12T13:53:53.089Z,5.37
2023-02-12T13:56:35.808Z,6.47
2023-02-12T13:59:04.012Z,6.23
2023-02-12T14:01:47.478Z,7.80
2023-02-12T14:04:23.655Z,6.50
2023-02-12T14:06:57.859Z,6.70
2023-02-12T14:09:33.964Z,7.30
2023-02-12T14:12:03.215Z,5.67
2023-02-12T14:14:35.309Z,7.60
2023-02-12T14:17:57.326Z,7.23
2023-02-12T14:20:32.284Z,5.77
2023-02-12T14:23:17.585Z,6.57
2023-02-12T14:25:49.229Z,7.57
2023-02-12T14:28:29.170Z,5.37
2023-02-12T14:31:33.019Z,8.77
2023-02-12T14:34:39.714Z,7.30
2023-02-12T14:37:32.718Z,8.33
2023-02-12T14:40:34.107Z,6.17
2023-02-12T14:43:05.133Z,7.20
2023-02-12T14:45:36.287Z,8.67
2023-02-12T14:48:05.837Z,6.63
2023-02-12T14:50:42.098Z,9.07
2023-02-12T14:53:26.475Z,6.67
2023-02-12T14:55:55.036Z,6.77
2023-02-12T14:58:26.446Z,10.83
2023-02-12T15:00:57.543Z,6.53
2023-02-12T15:03:31.465Z,7.37
2023-02-12T15:06:08.167Z,7.43
2023-02-12T15:08:45.107Z,8.57
2023-02-12T15:11:24.651Z,8.97
2023-02-12T15:13:58.489Z,8.70
2023-02-12T15:16:34.502Z,8.37
2023-02-12T15:19:08.973Z,9.00
2023-02-12T15:21:38.586Z,6.67
2023-02-12T15:24:10.354Z,8.97
2023-02-12T15:26:42.660Z,7.80
2023-02-12T15:29:21.708Z,7.90
2023-02-12T15:31:53.972Z,10.03
2023-02-12T15:34:25.803Z,7.07
2023-02-12T15:36:55.974Z,8.43
2023-02-12T15:39:26.014Z,7.10
2023-02-12T15:41:54.088Z,6.77
2023-02-12T15:44:28.202Z,6.23
2023-02-12T15:47:01.848Z,6.00
2023-02-12T15:49:36.306Z,6.00
2023-02-12T15:52:09.446Z,7.23
2023-02-12T15:54:40.326Z,7.30
2023-02-12T15:57:13.086Z,6.93
2023-02-12T15:59:42.838Z,6.33
2023-02-12T16:02:22.042Z,6.17
2023-02-12T16:04:50.733Z,6.57
2023-02-12T16:07:20.661Z,5.77
2023-02-12T16:09:53.752Z,5.70
2023-02-12T16:12:25.537Z,4.50
2023-02-12T16:14:55.559Z,6.63
2023-02-12T16:17:29.343Z,6.63
2023-02-12T16:19:59.438Z,5.07
2023-02-12T16:22:37.307Z,4.80
2023-02-12T16:25:16.687Z,8.00
2023-02-12T16:27:55.863Z,5.47
2023-02-12T16:30:30.049Z,5.77
2023-02-12T16:32:59.082Z,4.20
2023-02-12T16:35:33.777Z,5.73
2023-02-12T16:38:24.837Z,7.80
2023-02-12T16:41:27.058Z,5.53
2023-02-12T16:44:22.351Z,7.23
2023-02-12T16:46:54.036Z,4.63
2023-02-12T16:49:24.402Z,3.90
2023-02-12T16:51:54.116Z,4.17
2023-02-12T16:54:33.193Z,5.37
2023-02-12T16:57:03.394Z,3.47
2023-02-12T16:59:31.788Z,4.50
2023-02-12T17:02:02.102Z,5.77
2023-02-12T17:04:30.681Z,6.10
2023-02-12T17:06:59.511Z,6.23
2023-02-12T17:09:29.765Z,6.20
2023-02-12T17:11:58.767Z,6.73
2023-02-12T17:14:28.567Z,4.93
2023-02-12T17:16:57.163Z,6.30
2023-02-12T17:19:25.670Z,6.03
2023-02-12T17:21:54.683Z,7.43
2023-02-12T17:24:26.137Z,7.83
2023-02-12T17:26:55.700Z,7.13
2023-02-12T17:29:26.511Z,5.77
2023-02-12T17:31:56.491Z,7.97
2023-02-12T17:34:25.657Z,7.03
2023-02-12T17:36:54.651Z,8.70
2023-02-12T17:39:23.035Z,6.53
2023-02-12T17:41:51.826Z,9.30
2023-02-12T17:44:20.282Z,6.80
2023-02-12T17:46:48.744Z,6.90
2023-02-12T17:49:18.529Z,7.90
2023-02-12T17:51:46.980Z,11.23
2023-02-12T17:54:17.657Z,6.67
2023-02-12T17:56:46.329Z,8.67
2023-02-12T17:59:14.699Z,8.67
2023-02-12T18:01:43.082Z,10.57
2023-02-12T18:04:11.587Z,8.93
2023-02-12T18:06:41.464Z,10.57
2023-02-12T18:09:10.016Z,9.73
2023-02-12T18:11:40.373Z,9.07
2023-02-12T18:14:09.020Z,8.77
2023-02-12T18:16:37.480Z,7.60
2023-02-12T18:19:06.309Z,10.60
2023-02-12T18:21:35.164Z,6.73
2023-02-12T18:24:05.275Z,12.40
2023-02-12T18:26:33.636Z,7.87
2023-02-12T18:29:02.392Z,10.33
2023-02-12T18:31:30.961Z,9.07
2023-02-12T18:33:59.430Z,9.13
2023-02-12T18:36:28.039Z,9.73
2023-02-12T18:38:56.311Z,11.00
2023-02-12T18:41:28.435Z,12.70
2023-02-12T18:43:58.655Z,9.47
2023-02-12T18:46:29.611Z,11.10
2023-02-12T18:48:58.856Z,8.60
2023-02-12T18:51:30.998Z,10.73
2023-02-12T18:54:02.919Z,10.10
2023-02-12T18:56:34.593Z,11.03
2023-02-12T18:59:05.853Z,12.63
2023-02-12T19:01:35.823Z,11.90
2023-02-12T19:04:06.630Z,53.70
2023-02-12T19:06:39.473Z,117.03
2023-02-12T19:09:07.768Z,21.83
2023-02-12T19:11:38.498Z,15.37
2023-02-12T19:14:07.089Z,30.93
2023-02-12T19:16:35.850Z,35.57
2023-02-12T19:19:04.706Z,31.20
2023-02-12T19:21:33.081Z,25.90
2023-02-12T19:24:04.899Z,24.70
2023-02-12T19:26:34.703Z,24.27
2023-02-12T19:29:05.702Z,19.03
2023-02-12T19:31:36.712Z,14.20
2023-02-12T19:34:07.244Z,16.47
2023-02-12T19:36:37.323Z,10.93
2023-02-12T19:39:06.655Z,15.23
2023-02-12T19:41:40.700Z,16.63
2023-02-12T19:44:13.474Z,17.17
2023-02-12T19:46:42.257Z,19.83
2023-02-12T19:49:16.097Z,17.23
2023-02-12T19:51:44.925Z,13.67
2023-02-12T19:54:14.756Z,17.97
2023-02-12T19:56:43.642Z,13.73
2023-02-12T19:59:17.473Z,17.30
2023-02-12T20:01:46.070Z,20.10
2023-02-12T20:04:16.466Z,53.90
2023-02-12T20:06:45.918Z,33.67
2023-02-12T20:09:15.162Z,19.40
2023-02-12T20:11:43.700Z,16.20
2023-02-12T20:14:15.253Z,18.40
2023-02-12T20:16:44.757Z,11.80
2023-02-12T20:19:17.839Z,15.73
2023-02-12T20:21:48.991Z,14.10
2023-02-12T20:24:17.317Z,15.60
2023-02-12T20:26:45.666Z,15.50
2023-02-12T20:29:15.280Z,17.27
2023-02-12T20:31:44.929Z,13.90
2023-02-12T20:34:15.579Z,16.43
2023-02-12T20:36:45.831Z,17.93
2023-02-12T20:39:16.039Z,14.33
2023-02-12T20:41:44.754Z,15.50
2023-02-12T20:44:17.031Z,13.90
2023-02-12T20:46:46.397Z,15.80
2023-02-12T20:49:17.169Z,14.40
2023-02-12T20:51:46.280Z,15.13
2023-02-12T20:54:15.265Z,16.03
2023-02-12T20:56:43.950Z,35.00
2023-02-12T20:59:12.882Z,28.07
2023-02-12T21:01:43.691Z,25.50
2023-02-12T21:04:15.570Z,25.93
2023-02-12T21:06:45.162Z,22.67
2023-02-12T21:09:16.072Z,23.27
2023-02-12T21:11:46.313Z,22.67
2023-02-12T21:14:22.298Z,24.30
2023-02-12T21:16:53.845Z,29.07
2023-02-12T21:19:23.170Z,30.67
2023-02-12T21:21:51.619Z,29.10
2023-02-12T21:24:21.846Z,29.47
2023-02-12T21:26:51.353Z,28.90
2023-02-12T21:29:21.194Z,32.53
2023-02-12T21:31:51.329Z,38.07
2023-02-12T21:34:23.541Z,32.80
2023-02-12T21:36:54.169Z,36.03
2023-02-12T21:39:26.368Z,33.90
2023-02-12T21:41:56.554Z,35.50
2023-02-12T21:44:25.892Z,33.87
2023-02-12T21:46:54.313Z,39.60
2023-02-12T21:49:28.017Z,38.13
2023-02-12T21:51:57.713Z,47.17
2023-02-12T21:54:26.762Z,36.17
2023-02-12T21:56:54.912Z,42.07
2023-02-12T21:59:24.720Z,41.57
2023-02-12T22:01:55.284Z,44.50
2023-02-12T22:04:24.802Z,39.30
2023-02-12T22:06:54.020Z,45.57
2023-02-12T22:09:23.626Z,43.47
2023-02-12T22:11:52.970Z,45.87
2023-02-12T22:14:22.368Z,50.47
2023-02-12T22:16:50.616Z,49.33
2023-02-12T22:19:18.970Z,53.97
2023-02-12T22:21:52.304Z,39.17
2023-02-12T22:24:20.969Z,47.70
2023-02-12T22:26:49.029Z,48.00
2023-02-12T22:29:17.941Z,48.60
2023-02-12T22:31:47.765Z,41.83
2023-02-12T22:34:17.872Z,50.43
2023-02-12T22:36:46.741Z,46.83
2023-02-12T22:39:17.531Z,51.70
2023-02-12T22:41:46.068Z,46.80
2023-02-12T22:44:18.354Z,51.33
2023-02-12T22:46:47.564Z,47.87
2023-02-12T22:49:16.638Z,46.70
2023-02-12T22:51:44.728Z,44.83
2023-02-12T22:54:16.729Z,46.60
2023-02-12T22:56:45.588Z,44.27
2023-02-12T22:59:15.442Z,43.43
2023-02-12T23:01:43.972Z,46.87
2023-02-12T23:04:16.288Z,51.37
2023-02-12T23:06:44.700Z,50.07
2023-02-12T23:09:16.953Z,44.33
2023-02-12T23:11:46.075Z,45.43
2023-02-12T23:14:14.378Z,68.77
2023-02-12T23:16:42.724Z,45.83
2023-02-12T23:19:11.662Z,43.67
2023-02-12T23:21:40.039Z,45.27
2023-02-12T23:24:09.123Z,47.13
2023-02-12T23:26:38.859Z,44.80
2023-02-12T23:29:07.048Z,46.77
2023-02-12T23:31:35.383Z,40.17
2023-02-12T23:34:03.716Z,42.67
2023-02-12T23:36:32.010Z,42.27
2023-02-12T23:39:00.544Z,45.70
2023-02-12T23:41:28.811Z,45.53
2023-02-12T23:43:58.393Z,42.17
2023-02-12T23:46:26.579Z,41.37
2023-02-12T23:48:54.855Z,47.13
2023-02-12T23:51:23.046Z,44.37
2023-02-12T23:53:51.158Z,39.23
2023-02-12T23:56:19.360Z,40.00
2023-02-12T23:58:47.527Z,40.03
